Time;durP1;ratioP1;P1;durP2;ratioP2;P2;SDS_P1;SDS_P2;PMS_P1;PMS_P2;Temp;Humidity;BMP_temperature;BMP_pressure;BME280_temperature;BME280_humidity;BME280_pressure;Samples;Min_cycle;Max_cycle;Signal;HPM_P1;HPM_P2
2022/05/08 00:00:24;;;;;;;64.97;28.00;;;13.00;97.30;;;;;;4990856;28;20313;-78
2022/05/08 00:02:52;;;;;;;22.27;12.40;;;13.00;97.30;;;;;;4994007;28;20170;-77
2022/05/08 00:05:18;;;;;;;18.43;11.43;;;13.00;97.30;;;;;;4992780;28;20208;-77
2022/05/08 00:07:44;;;;;;;26.03;12.73;;;13.00;97.30;;;;;;4992532;28;20475;-77
2022/05/08 00:10:09;;;;;;;26.77;12.40;;;13.00;97.30;;;;;;4993742;28;20429;-77
2022/05/08 00:12:36;;;;;;;17.63;10.60;;;13.00;97.30;;;;;;4992357;28;20180;-77
2022/05/08 00:15:02;;;;;;;17.67;11.10;;;13.00;97.30;;;;;;4993614;28;20225;-78
2022/05/08 00:17:34;;;;;;;21.80;12.33;;;13.00;97.30;;;;;;4992510;28;20544;-78
2022/05/08 00:20:03;;;;;;;14.17;10.40;;;13.00;97.30;;;;;;4992215;28;20468;-77
2022/05/08 00:22:29;;;;;;;18.30;11.87;;;13.00;97.30;;;;;;4993311;28;20413;-78
2022/05/08 00:24:55;;;;;;;18.87;11.17;;;13.10;97.30;;;;;;4992222;28;20437;-78
2022/05/08 00:27:22;;;;;;;19.47;11.90;;;13.10;97.30;;;;;;4992853;28;20166;-77
2022/05/08 00:29:47;;;;;;;18.93;12.93;;;13.10;97.30;;;;;;4992304;28;20660;-77
2022/05/08 00:32:13;;;;;;;19.80;11.47;;;13.10;97.30;;;;;;4993005;28;20911;-78
2022/05/08 00:34:38;;;;;;;19.60;11.87;;;13.10;97.30;;;;;;4991702;28;20182;-77
2022/05/08 00:37:05;;;;;;;17.37;12.17;;;13.20;97.30;;;;;;5000681;28;20174;-77
2022/05/08 00:39:32;;;;;;;17.57;12.57;;;13.20;97.30;;;;;;5011558;28;20173;-77
2022/05/08 00:42:00;;;;;;;17.60;11.97;;;13.20;97.30;;;;;;5011141;28;20460;-77
2022/05/08 00:44:26;;;;;;;19.37;12.60;;;13.20;97.30;;;;;;5012644;28;20435;-77
2022/05/08 00:46:51;;;;;;;22.13;13.10;;;13.20;97.30;;;;;;5011239;28;20436;-77
2022/05/08 00:49:17;;;;;;;19.40;12.20;;;13.20;97.30;;;;;;5012426;28;20189;-78
2022/05/08 00:51:48;;;;;;;21.90;13.47;;;13.20;97.30;;;;;;5011007;28;20184;-77
2022/05/08 00:54:15;;;;;;;21.13;12.03;;;13.20;97.30;;;;;;5011075;28;20259;-76
2022/05/08 00:56:42;;;;;;;24.67;13.00;;;13.20;97.30;;;;;;5011022;28;20440;-77
2022/05/08 00:59:08;;;;;;;22.33;12.47;;;13.20;97.30;;;;;;5012615;28;20416;-77
2022/05/08 01:01:33;;;;;;;24.90;13.60;;;13.20;97.30;;;;;;5012312;28;20917;-77
2022/05/08 01:03:59;;;;;;;26.70;15.00;;;13.20;97.30;;;;;;5011031;28;20460;-77
2022/05/08 01:06:27;;;;;;;24.77;14.00;;;13.20;97.30;;;;;;5010887;28;20686;-78
2022/05/08 01:08:53;;;;;;;21.73;14.03;;;13.20;97.30;;;;;;5010893;28;20199;-77
2022/05/08 01:11:19;;;;;;;21.40;13.70;;;13.20;97.30;;;;;;5010157;28;20416;-77
2022/05/08 01:13:46;;;;;;;19.77;13.40;;;13.20;97.30;;;;;;5012033;28;20515;-78
2022/05/08 01:16:15;;;;;;;23.80;13.93;;;13.20;97.30;;;;;;5010612;28;20431;-78
2022/05/08 01:18:45;;;;;;;25.77;13.70;;;13.20;97.30;;;;;;5010715;28;20428;-77
2022/05/08 01:21:14;;;;;;;23.50;15.50;;;13.10;97.30;;;;;;5010643;28;20992;-78
2022/05/08 01:23:40;;;;;;;21.53;13.87;;;13.10;97.30;;;;;;5010469;28;20419;-77
2022/05/08 01:26:07;;;;;;;21.80;14.73;;;13.10;97.30;;;;;;5011693;28;20863;-78
2022/05/08 01:28:32;;;;;;;29.13;16.63;;;13.10;97.30;;;;;;5011656;28;20438;-77
2022/05/08 01:30:58;;;;;;;30.00;17.20;;;13.10;97.30;;;;;;5011540;28;20914;-78
2022/05/08 01:33:24;;;;;;;28.93;17.13;;;13.00;97.30;;;;;;5010179;28;20639;-77
2022/05/08 01:35:50;;;;;;;27.93;16.70;;;13.00;97.30;;;;;;5010271;28;20204;-77
2022/05/08 01:38:18;;;;;;;24.37;15.70;;;13.00;97.30;;;;;;5010315;28;20260;-78
2022/05/08 01:40:44;;;;;;;26.20;15.70;;;12.90;97.30;;;;;;5010286;28;20989;-78
2022/05/08 01:43:10;;;;;;;29.13;16.70;;;12.90;97.30;;;;;;5011640;28;20419;-78
2022/05/08 01:45:36;;;;;;;26.23;15.93;;;12.90;97.30;;;;;;5011707;28;20197;-78
2022/05/08 01:50:48;;;;;;;27.30;17.80;;;12.80;97.30;;;;;;5011858;28;21250;-78
2022/05/08 01:53:14;;;;;;;29.83;16.00;;;12.80;97.30;;;;;;5010111;28;20957;-78
2022/05/08 01:55:39;;;;;;;26.43;16.60;;;12.80;97.30;;;;;;5026159;28;20475;-78
2022/05/08 01:58:05;;;;;;;29.20;15.63;;;12.70;97.30;;;;;;5026327;28;20433;-76
2022/05/08 02:00:31;;;;;;;25.47;16.10;;;12.70;97.30;;;;;;5009760;28;20212;-76
2022/05/08 02:03:02;;;;;;;27.13;15.43;;;12.70;97.30;;;;;;5026278;28;20227;-76
2022/05/08 02:05:29;;;;;;;26.63;15.73;;;12.70;97.30;;;;;;5009583;28;20526;-76
2022/05/08 02:07:55;;;;;;;28.70;16.90;;;12.70;97.30;;;;;;5009941;28;20431;-76
2022/05/08 02:10:21;;;;;;;27.77;16.93;;;12.70;97.30;;;;;;5009764;28;20420;-76
2022/05/08 02:12:47;;;;;;;22.20;14.63;;;12.70;97.30;;;;;;5009663;28;20995;-76
2022/05/08 02:15:14;;;;;;;24.97;15.23;;;12.70;97.30;;;;;;5010896;28;20200;-76
2022/05/08 02:17:41;;;;;;;26.47;15.40;;;12.70;97.30;;;;;;5010797;28;20400;-76
2022/05/08 02:20:08;;;;;;;23.17;14.67;;;12.70;97.30;;;;;;5011164;28;20448;-76
2022/05/08 02:22:34;;;;;;;27.83;16.87;;;12.70;97.30;;;;;;4992185;28;20416;-76
2022/05/08 02:25:00;;;;;;;23.10;15.30;;;12.60;97.30;;;;;;5009223;28;20436;-76
2022/05/08 02:27:33;;;;;;;25.80;15.10;;;12.60;97.30;;;;;;5010526;28;20412;-76
2022/05/08 02:29:59;;;;;;;26.47;15.20;;;12.60;97.30;;;;;;5009491;28;20442;-76
2022/05/08 02:32:24;;;;;;;27.37;16.43;;;12.50;97.30;;;;;;5025519;28;20619;-76
2022/05/08 02:34:50;;;;;;;29.73;16.80;;;12.50;97.30;;;;;;5009414;28;20243;-76
2022/05/08 02:37:15;;;;;;;25.13;15.03;;;12.50;97.30;;;;;;5019900;28;20599;-76
2022/05/08 02:39:41;;;;;;;23.03;15.37;;;12.50;97.30;;;;;;5009350;28;20546;-76
2022/05/08 02:42:06;;;;;;;26.07;15.60;;;12.50;97.30;;;;;;5010703;28;20169;-76
2022/05/08 02:44:32;;;;;;;25.20;15.97;;;12.40;97.30;;;;;;5008945;28;20411;-76
2022/05/08 02:46:57;;;;;;;26.80;16.00;;;12.40;97.30;;;;;;5010138;28;20181;-76
2022/05/08 02:49:23;;;;;;;25.40;14.03;;;12.40;97.30;;;;;;5010229;28;20177;-76
2022/05/08 02:51:49;;;;;;;22.87;14.67;;;12.40;97.30;;;;;;5009131;28;20181;-77
2022/05/08 02:54:14;;;;;;;28.37;14.03;;;12.40;97.30;;;;;;5008570;28;20225;-76
2022/05/08 02:59:24;;;;;;;23.43;14.80;;;12.30;97.30;;;;;;5010348;28;20238;-76
2022/05/08 03:01:49;;;;;;;23.23;14.23;;;12.30;97.30;;;;;;5009005;28;21112;-76
2022/05/08 03:04:15;;;;;;;22.27;14.23;;;12.30;97.30;;;;;;5010170;28;20256;-76
2022/05/08 03:06:40;;;;;;;25.80;13.97;;;12.30;97.30;;;;;;5010004;28;20277;-76
2022/05/08 03:09:06;;;;;;;21.60;13.03;;;12.30;97.30;;;;;;5009887;28;20170;-76
2022/05/08 03:11:33;;;;;;;19.50;13.03;;;12.30;97.30;;;;;;5009018;28;20207;-76
2022/05/08 03:13:59;;;;;;;21.77;14.47;;;12.30;97.30;;;;;;5008596;28;20173;-76
2022/05/08 03:16:27;;;;;;;22.80;12.60;;;12.20;97.30;;;;;;5008388;28;20523;-76
2022/05/08 03:18:55;;;;;;;24.60;14.80;;;12.20;97.30;;;;;;5008491;28;20462;-76
2022/05/08 03:21:21;;;;;;;26.17;14.67;;;12.20;97.30;;;;;;5008502;28;20460;-76
2022/05/08 03:23:47;;;;;;;24.80;14.00;;;12.20;97.30;;;;;;5009831;28;20440;-76
2022/05/08 03:26:14;;;;;;;21.30;13.80;;;12.20;97.30;;;;;;5008386;28;20435;-76
2022/05/08 03:28:40;;;;;;;23.87;14.33;;;12.20;97.30;;;;;;5008511;28;20416;-78
2022/05/08 03:31:07;;;;;;;23.33;13.97;;;12.30;97.30;;;;;;5008586;28;20950;-76
2022/05/08 03:33:34;;;;;;;22.67;12.83;;;12.30;97.30;;;;;;5009366;28;20838;-76
2022/05/08 03:36:00;;;;;;;21.00;13.30;;;12.30;97.30;;;;;;5009618;28;20432;-76
2022/05/08 03:38:27;;;;;;;26.03;14.73;;;12.30;97.30;;;;;;5008398;28;20842;-76
2022/05/08 03:40:54;;;;;;;21.50;13.77;;;12.30;97.30;;;;;;5008351;28;20551;-76
2022/05/08 03:43:21;;;;;;;23.00;14.07;;;12.30;97.30;;;;;;5010226;28;20407;-77
2022/05/08 03:45:50;;;;;;;22.60;12.60;;;12.30;97.30;;;;;;5009724;28;20929;-76
2022/05/08 03:48:17;;;;;;;27.10;13.47;;;12.30;97.30;;;;;;5009727;28;20838;-76
2022/05/08 03:50:42;;;;;;;26.10;13.97;;;12.20;97.30;;;;;;5008194;28;20416;-76
2022/05/08 03:53:09;;;;;;;23.90;13.57;;;12.20;97.30;;;;;;5009566;28;20431;-76
2022/05/08 03:55:34;;;;;;;20.20;13.20;;;12.20;97.30;;;;;;5024363;28;20232;-76
2022/05/08 03:58:00;;;;;;;22.90;13.77;;;12.20;97.30;;;;;;5009467;28;20909;-76
2022/05/08 04:00:26;;;;;;;22.43;13.20;;;12.20;97.30;;;;;;5009311;28;20965;-76
2022/05/08 04:02:52;;;;;;;19.83;12.53;;;12.20;97.30;;;;;;5008647;28;20412;-78
2022/05/08 04:05:17;;;;;;;20.97;12.90;;;12.20;97.30;;;;;;5007905;28;20204;-78
2022/05/08 04:07:44;;;;;;;23.60;12.63;;;12.20;97.30;;;;;;5008322;28;20570;-78
2022/05/08 04:10:10;;;;;;;21.40;12.40;;;12.20;97.30;;;;;;5009472;28;20212;-78
2022/05/08 04:12:36;;;;;;;25.20;14.23;;;12.20;97.30;;;;;;5024714;28;20424;-78
2022/05/08 04:15:05;;;;;;;21.30;12.50;;;12.20;97.30;;;;;;5008016;28;20452;-78
2022/05/08 04:17:32;;;;;;;26.93;13.80;;;12.20;97.30;;;;;;5008255;28;20485;-77
2022/05/08 04:19:58;;;;;;;22.93;13.80;;;12.20;97.30;;;;;;5009455;28;20415;-78
2022/05/08 04:25:10;;;;;;;22.13;12.73;;;12.20;97.30;;;;;;5009702;28;20709;-78
2022/05/08 04:27:36;;;;;;;22.07;13.40;;;12.20;97.30;;;;;;5024478;28;20493;-78
2022/05/08 04:30:03;;;;;;;21.80;14.00;;;12.20;97.30;;;;;;5007976;28;20435;-78
2022/05/08 04:32:28;;;;;;;24.60;13.57;;;12.20;97.30;;;;;;5009230;28;20408;-78
2022/05/08 04:34:54;;;;;;;23.50;14.00;;;12.20;97.30;;;;;;5009011;28;20435;-78
2022/05/08 04:37:19;;;;;;;23.00;13.23;;;12.20;97.30;;;;;;5008943;28;20400;-77
2022/05/08 04:39:45;;;;;;;26.30;14.40;;;12.20;97.30;;;;;;5008964;28;20276;-78
2022/05/08 04:42:11;;;;;;;23.50;14.70;;;12.20;97.30;;;;;;5007885;28;20710;-78
2022/05/08 04:44:37;;;;;;;30.50;14.47;;;12.20;97.30;;;;;;5007527;28;20184;-78
2022/05/08 04:47:02;;;;;;;24.40;15.23;;;12.30;97.30;;;;;;5009981;28;20416;-78
2022/05/08 04:49:29;;;;;;;23.07;13.27;;;12.30;97.30;;;;;;5012241;28;20675;-78
2022/05/08 04:51:54;;;;;;;23.03;13.60;;;12.30;97.30;;;;;;5011065;28;20253;-78
2022/05/08 04:54:20;;;;;;;22.97;14.17;;;12.30;97.30;;;;;;5011036;28;20498;-78
2022/05/08 04:56:45;;;;;;;21.90;13.07;;;12.30;97.30;;;;;;5012407;28;20256;-78
2022/05/08 04:59:11;;;;;;;24.90;13.27;;;12.40;97.30;;;;;;5012488;28;20639;-78
2022/05/08 05:01:37;;;;;;;19.53;12.23;;;12.40;97.30;;;;;;5010890;28;20209;-78
2022/05/08 05:04:02;;;;;;;22.50;12.50;;;12.40;97.30;;;;;;5012464;28;20428;-78
2022/05/08 05:06:28;;;;;;;19.70;12.30;;;12.40;97.30;;;;;;5010886;28;20197;-78
2022/05/08 05:08:53;;;;;;;22.27;12.37;;;12.50;97.30;;;;;;5010989;28;20183;-78
2022/05/08 05:11:19;;;;;;;19.00;12.50;;;12.50;97.30;;;;;;5010853;28;20261;-78
2022/05/08 05:13:44;;;;;;;26.53;12.80;;;12.50;97.30;;;;;;5010866;28;20231;-78
2022/05/08 05:16:10;;;;;;;20.00;11.77;;;12.50;97.30;;;;;;5010662;28;20224;-78
2022/05/08 05:18:35;;;;;;;18.73;12.90;;;12.50;97.30;;;;;;5010280;28;20177;-79
2022/05/08 05:21:01;;;;;;;22.80;12.60;;;12.60;97.30;;;;;;5011296;28;20702;-77
2022/05/08 05:23:26;;;;;;;22.87;12.33;;;12.60;97.30;;;;;;5009817;28;20219;-78
2022/05/08 05:25:52;;;;;;;18.93;11.97;;;12.60;97.30;;;;;;5018142;28;20791;-78
2022/05/08 05:28:18;;;;;;;19.43;12.20;;;12.60;97.30;;;;;;5010234;28;20223;-78
2022/05/08 05:30:44;;;;;;;20.60;11.57;;;12.60;97.30;;;;;;5009836;28;20235;-78
2022/05/08 05:33:15;;;;;;;19.00;11.73;;;12.60;97.30;;;;;;5011327;28;20177;-77
2022/05/08 05:35:42;;;;;;;18.47;11.60;;;12.70;97.30;;;;;;5018824;28;20197;-77
2022/05/08 05:38:08;;;;;;;18.10;11.10;;;12.70;97.30;;;;;;5010528;28;20424;-78
2022/05/08 05:40:34;;;;;;;16.77;10.70;;;12.70;97.30;;;;;;5011483;28;20452;-77
2022/05/08 05:42:59;;;;;;;19.40;12.07;;;12.70;97.30;;;;;;5011495;28;20416;-78
2022/05/08 05:45:26;;;;;;;25.13;13.00;;;12.70;97.30;;;;;;5010680;28;20280;-77
2022/05/08 05:47:54;;;;;;;23.47;11.93;;;12.70;97.30;;;;;;5009789;28;20208;-77
2022/05/08 05:50:21;;;;;;;21.17;12.67;;;12.70;97.30;;;;;;5011108;28;20526;-78
2022/05/08 05:52:48;;;;;;;19.73;11.87;;;12.80;97.30;;;;;;5009602;28;20474;-78
2022/05/08 05:55:14;;;;;;;23.17;12.63;;;12.80;97.30;;;;;;5009434;28;20828;-78
2022/05/08 05:57:39;;;;;;;20.20;12.20;;;12.80;97.30;;;;;;5009404;28;20420;-78
2022/05/08 06:00:09;;;;;;;18.00;11.27;;;12.80;97.30;;;;;;5009849;28;20183;-77
2022/05/08 06:02:35;;;;;;;19.50;11.97;;;12.90;97.30;;;;;;5009600;28;20178;-77
2022/05/08 06:05:01;;;;;;;18.10;11.53;;;12.90;97.30;;;;;;5009662;28;20486;-77
2022/05/08 06:07:26;;;;;;;16.47;11.70;;;12.90;97.30;;;;;;5009568;28;20412;-72
2022/05/08 06:09:52;;;;;;;22.53;14.53;;;12.90;97.30;;;;;;5010601;28;20284;-73
2022/05/08 06:12:18;;;;;;;21.73;12.37;;;13.00;97.30;;;;;;5010575;28;20424;-73
2022/05/08 06:14:46;;;;;;;20.60;12.97;;;13.00;97.30;;;;;;5009449;28;20211;-73
2022/05/08 06:17:14;;;;;;;18.77;12.07;;;13.00;97.30;;;;;;5009377;28;20204;-73
2022/05/08 06:19:40;;;;;;;19.23;10.43;;;13.10;97.30;;;;;;5009794;28;20532;-73
2022/05/08 06:22:06;;;;;;;21.10;12.70;;;13.20;97.30;;;;;;5010499;28;20550;-73
2022/05/08 06:24:31;;;;;;;17.90;9.90;;;13.20;97.30;;;;;;5010605;28;20189;-73
2022/05/08 06:26:57;;;;;;;16.43;10.40;;;13.30;97.30;;;;;;5001565;28;20181;-73
2022/05/08 06:29:22;;;;;;;19.07;10.53;;;13.30;97.30;;;;;;5008729;28;20192;-74
2022/05/08 06:31:51;;;;;;;17.40;10.70;;;13.30;97.30;;;;;;5010708;28;20684;-76
2022/05/08 06:34:17;;;;;;;17.80;10.13;;;13.30;97.30;;;;;;5009586;28;20189;-74
2022/05/08 06:36:44;;;;;;;15.90;9.80;;;13.40;97.30;;;;;;5007204;28;20506;-73
2022/05/08 06:39:09;;;;;;;15.03;9.20;;;13.50;97.30;;;;;;5007019;28;20961;-73
2022/05/08 06:41:36;;;;;;;14.07;9.90;;;13.50;97.30;;;;;;5007175;28;20455;-73
2022/05/08 06:44:02;;;;;;;16.57;9.50;;;13.60;97.30;;;;;;5008712;28;20305;-73
2022/05/08 06:46:31;;;;;;;14.53;8.87;;;13.60;97.30;;;;;;5006988;28;20535;-73
2022/05/08 06:48:57;;;;;;;16.20;9.87;;;13.70;97.30;;;;;;5009673;28;20189;-75
2022/05/08 06:51:22;;;;;;;15.07;9.00;;;13.70;97.30;;;;;;5010978;28;20416;-75
2022/05/08 06:53:48;;;;;;;15.37;9.10;;;13.70;97.30;;;;;;5008831;28;20221;-73
2022/05/08 06:56:15;;;;;;;15.83;8.47;;;13.80;97.30;;;;;;5009677;28;20208;-73
2022/05/08 07:01:35;;;;;;;16.47;9.00;;;13.90;97.30;;;;;;5010148;28;20466;-74
2022/05/08 07:04:05;;;;;;;14.83;8.73;;;13.90;97.30;;;;;;5010038;28;20481;-74
2022/05/08 07:06:31;;;;;;;14.50;8.77;;;14.00;97.30;;;;;;5008601;28;20443;-73
2022/05/08 07:08:57;;;;;;;15.73;8.10;;;14.00;97.30;;;;;;5008073;28;20727;-73
2022/05/08 07:11:23;;;;;;;14.30;9.20;;;14.00;97.30;;;;;;5008156;28;20650;-74
2022/05/08 07:13:49;;;;;;;14.03;9.40;;;14.10;97.30;;;;;;5009913;28;20435;-74
2022/05/08 07:16:14;;;;;;;26.63;15.97;;;14.10;97.30;;;;;;5009576;28;20197;-74
2022/05/08 07:18:40;;;;;;;15.40;8.60;;;14.20;97.30;;;;;;5009698;28;20207;-73
2022/05/08 07:21:05;;;;;;;16.63;10.57;;;14.30;97.30;;;;;;5007742;28;20292;-74
2022/05/08 07:23:34;;;;;;;12.97;8.20;;;14.40;97.30;;;;;;5009819;28;20177;-74
2022/05/08 07:26:00;;;;;;;13.23;8.13;;;14.50;97.30;;;;;;5007953;28;20205;-74
2022/05/08 07:28:27;;;;;;;14.57;8.20;;;14.60;97.30;;;;;;5008160;28;21055;-73
2022/05/08 07:30:53;;;;;;;12.93;8.40;;;14.50;97.30;;;;;;5009879;28;20655;-73
2022/05/08 07:33:19;;;;;;;13.97;7.53;;;14.50;97.30;;;;;;5008248;28;20472;-74
2022/05/08 07:38:30;;;;;;;9.47;6.90;;;14.70;97.30;;;;;;5010360;28;20422;-74
2022/05/08 07:40:56;;;;;;;12.20;7.03;;;14.90;97.30;;;;;;5010593;28;20942;-74
2022/05/08 07:43:22;;;;;;;16.60;8.50;;;15.00;97.30;;;;;;5009011;28;20180;-73
2022/05/08 07:45:48;;;;;;;13.43;7.57;;;15.00;97.30;;;;;;5006442;28;20872;-74
2022/05/08 07:48:13;;;;;;;11.30;7.00;;;15.20;97.30;;;;;;5006838;28;20185;-73
2022/05/08 07:50:39;;;;;;;12.03;7.47;;;15.30;97.30;;;;;;5008702;28;20209;-74
2022/05/08 07:53:05;;;;;;;10.00;7.10;;;15.40;97.30;;;;;;5006791;28;20184;-74
2022/05/08 07:55:32;;;;;;;11.30;7.33;;;15.50;97.30;;;;;;5007886;28;20235;-74
2022/05/08 07:57:58;;;;;;;8.83;6.70;;;15.60;97.30;;;;;;5008514;28;20285;-74
2022/05/08 08:00:23;;;;;;;12.10;6.90;;;15.70;97.30;;;;;;5009220;28;20464;-73
2022/05/08 08:02:49;;;;;;;10.20;6.60;;;15.80;97.30;;;;;;5007887;28;20949;-74
2022/05/08 08:05:15;;;;;;;11.30;6.93;;;15.90;97.30;;;;;;5009154;28;20535;-73
2022/05/08 08:07:40;;;;;;;10.60;7.30;;;16.00;97.30;;;;;;5009143;28;20240;-74
2022/05/08 08:10:06;;;;;;;12.73;7.33;;;16.10;97.30;;;;;;5009473;28;20734;-74
2022/05/08 08:12:32;;;;;;;11.63;7.47;;;16.20;97.30;;;;;;5009116;28;20177;-74
2022/05/08 08:14:59;;;;;;;12.03;6.90;;;16.30;97.30;;;;;;5009702;28;20431;-78
2022/05/08 08:17:26;;;;;;;12.03;6.93;;;16.50;97.30;;;;;;5007921;28;20420;-78
2022/05/08 08:19:52;;;;;;;14.90;7.30;;;16.50;97.30;;;;;;5008865;28;20427;-78
2022/05/08 08:22:17;;;;;;;8.37;6.20;;;16.50;97.30;;;;;;5011434;28;20467;-78
2022/05/08 08:24:43;;;;;;;11.97;7.53;;;16.60;97.30;;;;;;5012985;28;20439;-78
2022/05/08 08:27:08;;;;;;;14.50;6.70;;;16.60;97.30;;;;;;5013033;28;20177;-78
2022/05/08 08:29:34;;;;;;;9.83;7.00;;;16.60;97.30;;;;;;5012971;28;20635;-77
2022/05/08 08:32:00;;;;;;;10.10;7.07;;;16.70;97.30;;;;;;5012998;28;20794;-78
2022/05/08 08:34:26;;;;;;;8.70;6.50;;;16.70;97.30;;;;;;5011530;28;20185;-78
2022/05/08 08:36:52;;;;;;;12.00;7.70;;;16.70;97.30;;;;;;5013290;28;20177;-79
2022/05/08 08:39:18;;;;;;;11.23;6.50;;;16.70;97.30;;;;;;5011991;28;20486;-78
2022/05/08 08:41:52;;;;;;;13.43;7.20;;;16.80;97.30;;;;;;5011445;28;20467;-79
2022/05/08 08:49:52;;;;;;;10.73;6.97;;;16.90;97.30;;;;;;5012537;28;20422;-79
2022/05/08 08:52:22;;;;;;;12.07;6.80;;;16.90;97.30;;;;;;5010931;28;20432;-78
2022/05/08 08:54:48;;;;;;;9.50;6.80;;;17.00;97.30;;;;;;5010979;28;20599;-77
2022/05/08 08:57:13;;;;;;;10.33;7.00;;;17.00;97.30;;;;;;5012729;28;20415;-78
2022/05/08 08:59:39;;;;;;;10.97;6.20;;;17.10;97.30;;;;;;5012261;28;20222;-79
2022/05/08 09:02:15;;;;;;;12.17;7.90;;;17.20;97.30;;;;;;5011271;28;20197;-79
2022/05/08 09:04:41;;;;;;;10.40;7.47;;;17.40;97.30;;;;;;5010935;28;20270;-78
2022/05/08 09:07:45;;;;;;;12.90;7.40;;;17.40;97.30;;;;;;5010862;28;20451;-78
2022/05/08 09:10:18;;;;;;;13.30;6.63;;;17.40;97.00;;;;;;5027238;28;20721;-78
2022/05/08 09:12:53;;;;;;;8.10;6.40;;;17.40;96.30;;;;;;5011000;28;20968;-78
2022/05/08 09:15:20;;;;;;;14.17;7.97;;;17.50;97.20;;;;;;5012021;28;20607;-78
2022/05/08 09:17:48;;;;;;;16.00;8.10;;;17.40;97.00;;;;;;5012492;28;20413;-79
2022/05/08 09:20:27;;;;;;;10.57;7.00;;;17.40;97.00;;;;;;5010958;28;20511;-78
2022/05/08 09:23:10;;;;;;;10.00;7.30;;;17.30;97.10;;;;;;5011018;28;20448;-79
2022/05/08 09:25:43;;;;;;;12.03;7.10;;;17.20;97.30;;;;;;5012347;28;20428;-79
2022/05/08 09:28:10;;;;;;;9.93;7.30;;;17.20;97.30;;;;;;5012360;28;20921;-76
2022/05/08 09:30:52;;;;;;;13.20;7.70;;;17.20;97.30;;;;;;5010710;28;20726;-75
2022/05/08 09:33:44;;;;;;;9.00;6.40;;;17.20;97.30;;;;;;5009543;28;20431;-76
2022/05/08 09:36:11;;;;;;;10.43;8.07;;;17.20;97.30;;;;;;5010510;28;20527;-76
2022/05/08 09:38:55;;;;;;;11.60;6.70;;;17.20;97.30;;;;;;5011745;28;20419;-76
2022/05/08 09:41:31;;;;;;;12.03;8.07;;;17.30;97.30;;;;;;5010094;28;20509;-76
2022/05/08 09:44:11;;;;;;;9.67;6.60;;;17.40;97.30;;;;;;5011277;28;20419;-76
2022/05/08 09:46:47;;;;;;;12.50;7.60;;;17.60;97.30;;;;;;5010311;28;20435;-76
2022/05/08 09:49:17;;;;;;;10.80;7.67;;;17.70;97.20;;;;;;5011460;28;20694;-76
2022/05/08 09:51:43;;;;;;;13.27;7.10;;;17.80;96.80;;;;;;5011684;28;20408;-76
2022/05/08 09:54:09;;;;;;;11.40;7.10;;;17.90;96.70;;;;;;5010868;28;20984;-77
2022/05/08 09:56:36;;;;;;;14.13;7.97;;;18.00;96.60;;;;;;5010002;28;20201;-78
2022/05/08 09:59:05;;;;;;;13.07;7.87;;;18.10;97.00;;;;;;5011358;28;20440;-78
2022/05/08 10:01:32;;;;;;;11.50;7.80;;;18.10;96.70;;;;;;5010117;28;20463;-77
2022/05/08 10:03:59;;;;;;;11.60;7.63;;;18.20;96.50;;;;;;5011350;28;20415;-78
2022/05/08 10:06:28;;;;;;;9.67;6.97;;;18.10;96.40;;;;;;5009844;28;20786;-78
2022/05/08 10:13:53;;;;;;;9.70;7.67;;;18.10;96.30;;;;;;5010001;28;20793;-78
2022/05/08 10:14:25;;;;;;;16.80;8.80;;;18.20;96.50;;;;;;5011213;28;20467;-78
2022/05/08 10:17:04;;;;;;;9.63;7.63;;;18.30;95.50;;;;;;5009771;28;20942;-77
2022/05/08 10:19:30;;;;;;;9.90;7.20;;;18.60;95.50;;;;;;5009660;28;20418;-77
2022/05/08 10:22:09;;;;;;;12.10;7.53;;;18.80;94.20;;;;;;5009608;28;20464;-77
2022/05/08 10:24:53;;;;;;;13.00;7.60;;;18.80;94.20;;;;;;5009535;28;20654;-79
2022/05/08 10:27:33;;;;;;;10.40;6.73;;;18.80;93.30;;;;;;5009376;28;20451;-78
2022/05/08 10:29:58;;;;;;;9.63;7.37;;;18.70;93.50;;;;;;5009368;28;20794;-78
2022/05/08 10:32:32;;;;;;;11.00;6.97;;;18.80;93.90;;;;;;5011210;28;20412;-79
2022/05/08 10:35:11;;;;;;;17.47;7.80;;;18.80;94.50;;;;;;5009745;28;20570;-78
2022/05/08 10:37:41;;;;;;;12.33;7.10;;;19.00;94.20;;;;;;5009145;28;20906;-78
2022/05/08 10:40:22;;;;;;;13.03;7.20;;;19.10;94.90;;;;;;5009161;28;20416;-78
2022/05/08 10:42:58;;;;;;;11.93;7.33;;;19.30;94.70;;;;;;5009437;28;20412;-78
2022/05/08 10:45:30;;;;;;;12.23;6.17;;;19.30;92.60;;;;;;5011418;28;20440;-79
2022/05/08 10:48:07;;;;;;;10.80;5.20;;;19.20;92.90;;;;;;5011820;28;20494;-78
2022/05/08 10:50:33;;;;;;;7.10;5.23;;;19.20;91.30;;;;;;5009095;28;20424;-78
2022/05/08 10:52:59;;;;;;;8.10;5.43;;;19.10;90.90;;;;;;5009338;28;20408;-79
2022/05/08 10:55:27;;;;;;;6.87;4.70;;;19.10;91.00;;;;;;5011756;28;20473;-79
2022/05/08 10:57:53;;;;;;;6.37;4.67;;;19.20;91.20;;;;;;5009520;28;20192;-80
2022/05/08 11:00:21;;;;;;;7.37;4.60;;;19.30;89.00;;;;;;5012048;28;20434;-79
2022/05/08 11:02:50;;;;;;;7.47;4.57;;;19.50;89.70;;;;;;5012022;28;20408;-79
2022/05/08 11:05:19;;;;;;;6.83;4.70;;;19.70;90.60;;;;;;5010103;28;20849;-79
2022/05/08 11:07:59;;;;;;;9.57;4.60;;;20.00;90.40;;;;;;5010472;28;20487;-79
2022/05/08 11:10:30;;;;;;;10.70;4.87;;;20.20;89.30;;;;;;5011929;28;20412;-79
2022/05/08 11:13:10;;;;;;;7.93;4.87;;;20.20;88.70;;;;;;5010191;28;20941;-79
2022/05/08 11:15:45;;;;;;;8.27;4.43;;;20.20;89.50;;;;;;5011410;28;20432;-79
2022/05/08 11:18:24;;;;;;;7.83;4.47;;;20.10;87.60;;;;;;5009950;28;20462;-79
2022/05/08 11:21:04;;;;;;;6.40;4.50;;;19.90;88.40;;;;;;5011358;28;20479;-79
2022/05/08 11:23:32;;;;;;;6.33;4.17;;;19.90;88.30;;;;;;5010613;28;20772;-78
2022/05/08 11:26:02;;;;;;;7.57;5.03;;;19.80;88.60;;;;;;5009831;28;20804;-79
2022/05/08 11:28:29;;;;;;;10.37;5.77;;;19.70;88.60;;;;;;5011704;28;20694;-79
2022/05/08 11:30:57;;;;;;;8.13;5.57;;;19.60;90.20;;;;;;5009455;28;20957;-79
2022/05/08 11:36:31;;;;;;;8.80;4.60;;;19.70;89.90;;;;;;5011035;28;20435;-78
2022/05/08 11:39:03;;;;;;;11.10;7.37;;;19.60;89.00;;;;;;5009893;28;21017;-79
2022/05/08 11:41:31;;;;;;;12.50;4.83;;;19.60;88.70;;;;;;5009592;28;20977;-79
2022/05/08 11:43:59;;;;;;;11.93;5.43;;;19.50;88.40;;;;;;5009588;28;20429;-78
2022/05/08 11:46:38;;;;;;;8.10;4.73;;;19.40;87.70;;;;;;5009909;28;20436;-79
2022/05/08 11:49:15;;;;;;;10.03;4.77;;;19.50;88.60;;;;;;5010202;28;20527;-79
2022/05/08 11:51:43;;;;;;;8.57;4.97;;;19.60;89.30;;;;;;5009142;28;20428;-79
2022/05/08 11:54:22;;;;;;;9.83;4.17;;;19.60;88.20;;;;;;5010187;28;20985;-78
2022/05/08 11:56:53;;;;;;;6.93;4.13;;;19.60;89.30;;;;;;5013810;28;20866;-79
2022/05/08 11:59:21;;;;;;;6.97;4.47;;;19.60;88.70;;;;;;5015787;28;20430;-79
2022/05/08 12:01:52;;;;;;;7.97;5.13;;;19.60;89.60;;;;;;5015232;28;20463;-79
2022/05/08 12:04:26;;;;;;;5.93;3.83;;;19.60;89.10;;;;;;5013703;28;20416;-79
2022/05/08 12:07:09;;;;;;;13.33;5.03;;;19.80;89.30;;;;;;5015320;28;20407;-79
2022/05/08 12:09:36;;;;;;;9.37;5.47;;;19.80;88.10;;;;;;5013302;28;20454;-79
2022/05/08 12:12:26;;;;;;;6.43;4.50;;;19.80;87.80;;;;;;5013833;28;20427;-79
2022/05/08 12:14:52;;;;;;;10.50;5.20;;;19.90;88.20;;;;;;5014919;28;20436;-79
2022/05/08 12:17:19;;;;;;;10.63;5.40;;;19.90;87.40;;;;;;5013669;28;20478;-78
2022/05/08 12:19:56;;;;;;;8.07;5.47;;;19.80;87.20;;;;;;5013877;28;20419;-79
2022/05/08 12:22:29;;;;;;;17.20;4.47;;;19.70;87.40;;;;;;5013144;28;20540;-79
2022/05/08 12:25:00;;;;;;;8.10;4.83;;;19.80;87.50;;;;;;5012757;28;20446;-79
2022/05/08 12:27:27;;;;;;;9.53;4.20;;;19.80;88.10;;;;;;5011911;28;20447;-79
2022/05/08 12:29:53;;;;;;;8.37;4.70;;;20.00;87.90;;;;;;5011288;28;20431;-79
2022/05/08 12:32:24;;;;;;;9.93;4.73;;;20.10;86.50;;;;;;5011729;28;20416;-79
2022/05/08 12:34:50;;;;;;;11.13;4.33;;;19.90;87.60;;;;;;5012800;28;20451;-80
2022/05/08 12:37:16;;;;;;;12.73;4.80;;;19.70;87.50;;;;;;5013331;28;20412;-79
2022/05/08 12:39:43;;;;;;;8.60;4.77;;;19.60;88.40;;;;;;5011548;28;20659;-79
2022/05/08 12:42:10;;;;;;;13.07;4.73;;;19.60;89.20;;;;;;5011632;28;20463;-78
2022/05/08 12:44:39;;;;;;;25.23;6.53;;;19.60;88.90;;;;;;5011473;28;20910;-79
2022/05/08 12:47:05;;;;;;;13.60;5.40;;;19.50;89.30;;;;;;5011754;28;20435;-79
2022/05/08 12:49:31;;;;;;;14.40;4.30;;;19.50;89.40;;;;;;5011433;28;20854;-81
2022/05/08 12:51:57;;;;;;;13.43;4.23;;;19.50;89.70;;;;;;5011434;28;20696;-78
2022/05/08 12:54:22;;;;;;;9.27;5.00;;;19.40;88.70;;;;;;5012473;28;20517;-79
2022/05/08 12:56:48;;;;;;;11.07;6.00;;;19.40;88.20;;;;;;5012628;28;20177;-79
2022/05/08 13:01:58;;;;;;;12.50;5.10;;;19.40;88.80;;;;;;5012367;28;20714;-78
2022/05/08 13:04:24;;;;;;;14.27;5.00;;;19.50;87.70;;;;;;5010979;28;20413;-78